sensor_id;sensor_type;location;lat;lon;timestamp;P1;durP1;ratioP1;P2;durP2;ratioP2
8663;SDS011;4369;47.842;13.096;2024-03-02T00:01:36;36.50;;;21.67;;
8663;SDS011;4369;47.842;13.096;2024-03-02T00:04:04;32.10;;;20.60;;
8663;SDS011;4369;47.842;13.096;2024-03-02T00:06:31;37.47;;;21.30;;
8663;SDS011;4369;47.842;13.096;2024-03-02T00:08:59;33.73;;;20.93;;
8663;SDS011;4369;47.842;13.096;2024-03-02T00:11:26;33.23;;;20.97;;
8663;SDS011;4369;47.842;13.096;2024-03-02T00:13:53;36.40;;;21.57;;
8663;SDS011;4369;47.842;13.096;2024-03-02T00:16:20;32.20;;;20.77;;
8663;SDS011;4369;47.842;13.096;2024-03-02T00:18:50;33.47;;;20.03;;
8663;SDS011;4369;47.842;13.096;2024-03-02T00:21:17;34.23;;;20.67;;
8663;SDS011;4369;47.842;13.096;2024-03-02T00:23:46;32.57;;;20.27;;
8663;SDS011;4369;47.842;13.096;2024-03-02T00:26:15;33.47;;;21.13;;
8663;SDS011;4369;47.842;13.096;2024-03-02T00:28:42;31.17;;;20.27;;
8663;SDS011;4369;47.842;13.096;2024-03-02T00:31:11;33.70;;;20.67;;
8663;SDS011;4369;47.842;13.096;2024-03-02T00:33:40;37.50;;;21.83;;
8663;SDS011;4369;47.842;13.096;2024-03-02T00:36:10;39.90;;;22.50;;
8663;SDS011;4369;47.842;13.096;2024-03-02T00:38:44;35.63;;;21.53;;
8663;SDS011;4369;47.842;13.096;2024-03-02T00:41:17;34.10;;;21.57;;
8663;SDS011;4369;47.842;13.096;2024-03-02T00:43:47;40.57;;;22.60;;
8663;SDS011;4369;47.842;13.096;2024-03-02T00:46:30;33.97;;;20.70;;
8663;SDS011;4369;47.842;13.096;2024-03-02T00:49:00;32.87;;;20.87;;
8663;SDS011;4369;47.842;13.096;2024-03-02T00:51:30;35.23;;;21.07;;
8663;SDS011;4369;47.842;13.096;2024-03-02T00:53:59;36.67;;;22.03;;
8663;SDS011;4369;47.842;13.096;2024-03-02T00:56:29;32.83;;;21.93;;
8663;SDS011;4369;47.842;13.096;2024-03-02T00:58:56;31.77;;;20.87;;
8663;SDS011;4369;47.842;13.096;2024-03-02T01:01:24;33.30;;;22.20;;
8663;SDS011;4369;47.842;13.096;2024-03-02T01:03:51;30.67;;;20.23;;
8663;SDS011;4369;47.842;13.096;2024-03-02T01:06:18;33.97;;;20.57;;
8663;SDS011;4369;47.842;13.096;2024-03-02T01:08:47;32.40;;;20.13;;
8663;SDS011;4369;47.842;13.096;2024-03-02T01:11:16;33.30;;;20.50;;
8663;SDS011;4369;47.842;13.096;2024-03-02T01:13:44;34.57;;;21.13;;
8663;SDS011;4369;47.842;13.096;2024-03-02T01:16:11;35.40;;;20.60;;
8663;SDS011;4369;47.842;13.096;2024-03-02T01:18:38;33.70;;;19.50;;
8663;SDS011;4369;47.842;13.096;2024-03-02T01:21:08;34.50;;;20.97;;
8663;SDS011;4369;47.842;13.096;2024-03-02T01:23:35;33.47;;;20.73;;
8663;SDS011;4369;47.842;13.096;2024-03-02T01:26:04;32.77;;;20.63;;
8663;SDS011;4369;47.842;13.096;2024-03-02T01:28:31;34.80;;;21.10;;
8663;SDS011;4369;47.842;13.096;2024-03-02T01:30:58;33.37;;;21.60;;
8663;SDS011;4369;47.842;13.096;2024-03-02T01:33:26;33.27;;;20.93;;
8663;SDS011;4369;47.842;13.096;2024-03-02T01:35:53;35.57;;;21.10;;
8663;SDS011;4369;47.842;13.096;2024-03-02T01:38:20;36.37;;;21.03;;
8663;SDS011;4369;47.842;13.096;2024-03-02T01:40:47;32.53;;;19.77;;
8663;SDS011;4369;47.842;13.096;2024-03-02T01:43:15;34.33;;;21.23;;
8663;SDS011;4369;47.842;13.096;2024-03-02T01:45:42;34.03;;;21.57;;
8663;SDS011;4369;47.842;13.096;2024-03-02T01:48:09;35.83;;;22.93;;
8663;SDS011;4369;47.842;13.096;2024-03-02T01:50:36;33.60;;;21.47;;
8663;SDS011;4369;47.842;13.096;2024-03-02T01:53:03;31.73;;;21.03;;
8663;SDS011;4369;47.842;13.096;2024-03-02T01:55:32;34.27;;;22.13;;
8663;SDS011;4369;47.842;13.096;2024-03-02T01:57:59;35.43;;;22.87;;
8663;SDS011;4369;47.842;13.096;2024-03-02T02:00:28;36.07;;;21.40;;
8663;SDS011;4369;47.842;13.096;2024-03-02T02:02:55;37.67;;;21.77;;
8663;SDS011;4369;47.842;13.096;2024-03-02T02:05:22;37.93;;;22.53;;
8663;SDS011;4369;47.842;13.096;2024-03-02T02:07:49;35.50;;;20.90;;
8663;SDS011;4369;47.842;13.096;2024-03-02T02:10:18;38.80;;;21.80;;
8663;SDS011;4369;47.842;13.096;2024-03-02T02:12:45;35.80;;;22.27;;
8663;SDS011;4369;47.842;13.096;2024-03-02T02:15:22;34.83;;;21.63;;
8663;SDS011;4369;47.842;13.096;2024-03-02T02:17:51;35.37;;;21.43;;
8663;SDS011;4369;47.842;13.096;2024-03-02T02:20:19;36.13;;;21.90;;
8663;SDS011;4369;47.842;13.096;2024-03-02T02:22:57;36.03;;;21.13;;
8663;SDS011;4369;47.842;13.096;2024-03-02T02:25:24;37.20;;;21.43;;
8663;SDS011;4369;47.842;13.096;2024-03-02T02:27:52;31.73;;;20.40;;
8663;SDS011;4369;47.842;13.096;2024-03-02T02:30:19;37.47;;;20.67;;
8663;SDS011;4369;47.842;13.096;2024-03-02T02:32:47;32.30;;;19.70;;
8663;SDS011;4369;47.842;13.096;2024-03-02T02:35:14;37.13;;;19.97;;
8663;SDS011;4369;47.842;13.096;2024-03-02T02:37:41;36.00;;;20.70;;
8663;SDS011;4369;47.842;13.096;2024-03-02T02:40:10;35.03;;;20.70;;
8663;SDS011;4369;47.842;13.096;2024-03-02T02:42:38;29.90;;;18.37;;
8663;SDS011;4369;47.842;13.096;2024-03-02T02:45:05;30.53;;;18.23;;
8663;SDS011;4369;47.842;13.096;2024-03-02T02:47:33;28.87;;;18.17;;
8663;SDS011;4369;47.842;13.096;2024-03-02T02:50:00;36.50;;;21.57;;
8663;SDS011;4369;47.842;13.096;2024-03-02T02:52:30;33.13;;;19.97;;
8663;SDS011;4369;47.842;13.096;2024-03-02T02:55:00;32.17;;;20.23;;
8663;SDS011;4369;47.842;13.096;2024-03-02T02:57:30;32.97;;;20.67;;
8663;SDS011;4369;47.842;13.096;2024-03-02T03:00:00;32.80;;;19.80;;
8663;SDS011;4369;47.842;13.096;2024-03-02T03:02:30;30.33;;;19.77;;
8663;SDS011;4369;47.842;13.096;2024-03-02T03:04:57;35.70;;;20.43;;
8663;SDS011;4369;47.842;13.096;2024-03-02T03:07:24;34.63;;;20.90;;
8663;SDS011;4369;47.842;13.096;2024-03-02T03:09:51;36.03;;;21.10;;
8663;SDS011;4369;47.842;13.096;2024-03-02T03:12:18;34.70;;;20.37;;
8663;SDS011;4369;47.842;13.096;2024-03-02T03:14:46;35.13;;;20.43;;
8663;SDS011;4369;47.842;13.096;2024-03-02T03:17:14;31.00;;;19.73;;
8663;SDS011;4369;47.842;13.096;2024-03-02T03:19:41;33.37;;;20.67;;
8663;SDS011;4369;47.842;13.096;2024-03-02T03:22:08;29.83;;;18.60;;
8663;SDS011;4369;47.842;13.096;2024-03-02T03:24:34;35.33;;;20.67;;
8663;SDS011;4369;47.842;13.096;2024-03-02T03:27:01;34.03;;;20.20;;
8663;SDS011;4369;47.842;13.096;2024-03-02T03:29:28;32.77;;;20.03;;
8663;SDS011;4369;47.842;13.096;2024-03-02T03:31:57;33.33;;;18.93;;
8663;SDS011;4369;47.842;13.096;2024-03-02T03:34:24;37.20;;;21.07;;
8663;SDS011;4369;47.842;13.096;2024-03-02T03:36:52;35.87;;;20.90;;
8663;SDS011;4369;47.842;13.096;2024-03-02T03:39:19;34.60;;;20.33;;
8663;SDS011;4369;47.842;13.096;2024-03-02T03:41:46;34.37;;;20.13;;
8663;SDS011;4369;47.842;13.096;2024-03-02T03:44:13;32.03;;;19.03;;
8663;SDS011;4369;47.842;13.096;2024-03-02T03:46:40;34.27;;;20.03;;
8663;SDS011;4369;47.842;13.096;2024-03-02T03:49:09;32.90;;;20.67;;
8663;SDS011;4369;47.842;13.096;2024-03-02T03:51:36;31.60;;;18.73;;
8663;SDS011;4369;47.842;13.096;2024-03-02T03:54:03;31.10;;;18.57;;
8663;SDS011;4369;47.842;13.096;2024-03-02T03:56:30;30.63;;;18.87;;
8663;SDS011;4369;47.842;13.096;2024-03-02T03:58:57;32.47;;;19.70;;
8663;SDS011;4369;47.842;13.096;2024-03-02T04:01:24;33.10;;;20.07;;
8663;SDS011;4369;47.842;13.096;2024-03-02T04:03:51;32.53;;;19.20;;
8663;SDS011;4369;47.842;13.096;2024-03-02T04:06:20;30.27;;;18.80;;
8663;SDS011;4369;47.842;13.096;2024-03-02T04:08:47;31.87;;;18.43;;
8663;SDS011;4369;47.842;13.096;2024-03-02T04:11:14;29.67;;;17.00;;
8663;SDS011;4369;47.842;13.096;2024-03-02T04:13:41;30.03;;;17.53;;
8663;SDS011;4369;47.842;13.096;2024-03-02T04:16:08;28.63;;;17.73;;
8663;SDS011;4369;47.842;13.096;2024-03-02T04:18:35;28.17;;;17.53;;
8663;SDS011;4369;47.842;13.096;2024-03-02T04:21:01;28.50;;;17.60;;
8663;SDS011;4369;47.842;13.096;2024-03-02T04:23:30;27.50;;;17.57;;
8663;SDS011;4369;47.842;13.096;2024-03-02T04:25:57;30.47;;;18.37;;
8663;SDS011;4369;47.842;13.096;2024-03-02T04:28:24;30.87;;;18.13;;
8663;SDS011;4369;47.842;13.096;2024-03-02T04:30:51;30.70;;;17.97;;
8663;SDS011;4369;47.842;13.096;2024-03-02T04:33:18;26.67;;;17.67;;
8663;SDS011;4369;47.842;13.096;2024-03-02T04:35:45;27.67;;;17.67;;
8663;SDS011;4369;47.842;13.096;2024-03-02T04:38:12;29.80;;;17.43;;
8663;SDS011;4369;47.842;13.096;2024-03-02T04:40:41;28.53;;;17.20;;
8663;SDS011;4369;47.842;13.096;2024-03-02T04:43:07;27.73;;;16.80;;
8663;SDS011;4369;47.842;13.096;2024-03-02T04:45:36;28.40;;;16.03;;
8663;SDS011;4369;47.842;13.096;2024-03-02T04:48:04;26.47;;;16.40;;
8663;SDS011;4369;47.842;13.096;2024-03-02T04:50:32;30.03;;;18.60;;
8663;SDS011;4369;47.842;13.096;2024-03-02T04:52:59;31.20;;;17.40;;
8663;SDS011;4369;47.842;13.096;2024-03-02T04:55:26;28.17;;;16.57;;
8663;SDS011;4369;47.842;13.096;2024-03-02T04:58:22;28.73;;;16.67;;
8663;SDS011;4369;47.842;13.096;2024-03-02T05:00:49;27.83;;;16.70;;
8663;SDS011;4369;47.842;13.096;2024-03-02T05:03:16;26.90;;;16.80;;
8663;SDS011;4369;47.842;13.096;2024-03-02T05:05:43;28.67;;;16.97;;
8663;SDS011;4369;47.842;13.096;2024-03-02T05:08:10;29.50;;;18.03;;
8663;SDS011;4369;47.842;13.096;2024-03-02T05:10:38;29.93;;;17.63;;
8663;SDS011;4369;47.842;13.096;2024-03-02T05:13:05;28.07;;;16.83;;
8663;SDS011;4369;47.842;13.096;2024-03-02T05:15:33;33.67;;;21.58;;
8663;SDS011;4369;47.842;13.096;2024-03-02T05:18:01;31.83;;;19.13;;
8663;SDS011;4369;47.842;13.096;2024-03-02T05:20:30;33.73;;;19.30;;
8663;SDS011;4369;47.842;13.096;2024-03-02T05:22:57;31.90;;;18.50;;
8663;SDS011;4369;47.842;13.096;2024-03-02T05:25:24;32.23;;;18.63;;
8663;SDS011;4369;47.842;13.096;2024-03-02T05:27:51;28.30;;;17.10;;
8663;SDS011;4369;47.842;13.096;2024-03-02T05:30:18;29.37;;;17.77;;
8663;SDS011;4369;47.842;13.096;2024-03-02T05:32:46;33.87;;;19.70;;
8663;SDS011;4369;47.842;13.096;2024-03-02T05:35:13;36.77;;;20.60;;
8663;SDS011;4369;47.842;13.096;2024-03-02T05:37:40;34.83;;;21.00;;
8663;SDS011;4369;47.842;13.096;2024-03-02T05:40:08;35.87;;;20.47;;
8663;SDS011;4369;47.842;13.096;2024-03-02T05:42:36;30.00;;;18.67;;
8663;SDS011;4369;47.842;13.096;2024-03-02T05:45:03;36.23;;;21.03;;
8663;SDS011;4369;47.842;13.096;2024-03-02T05:47:31;35.33;;;20.57;;
8663;SDS011;4369;47.842;13.096;2024-03-02T05:50:00;34.87;;;21.17;;
8663;SDS011;4369;47.842;13.096;2024-03-02T05:52:29;35.37;;;19.80;;
8663;SDS011;4369;47.842;13.096;2024-03-02T05:54:56;34.90;;;20.63;;
8663;SDS011;4369;47.842;13.096;2024-03-02T05:57:24;35.27;;;20.80;;
8663;SDS011;4369;47.842;13.096;2024-03-02T06:00:10;32.92;;;20.25;;
8663;SDS011;4369;47.842;13.096;2024-03-02T06:02:38;35.77;;;21.50;;
8663;SDS011;4369;47.842;13.096;2024-03-02T06:05:08;36.57;;;22.03;;
8663;SDS011;4369;47.842;13.096;2024-03-02T06:07:36;35.00;;;20.33;;
8663;SDS011;4369;47.842;13.096;2024-03-02T06:10:07;40.17;;;21.53;;
8663;SDS011;4369;47.842;13.096;2024-03-02T06:12:34;36.90;;;20.53;;
8663;SDS011;4369;47.842;13.096;2024-03-02T06:15:01;34.07;;;19.57;;
8663;SDS011;4369;47.842;13.096;2024-03-02T06:17:29;28.43;;;18.73;;
8663;SDS011;4369;47.842;13.096;2024-03-02T06:19:56;34.07;;;18.30;;
8663;SDS011;4369;47.842;13.096;2024-03-02T06:22:24;35.97;;;22.23;;
8663;SDS011;4369;47.842;13.096;2024-03-02T06:24:51;38.07;;;22.63;;
8663;SDS011;4369;47.842;13.096;2024-03-02T06:27:18;32.05;;;22.15;;
8663;SDS011;4369;47.842;13.096;2024-03-02T06:29:45;32.63;;;20.37;;
8663;SDS011;4369;47.842;13.096;2024-03-02T06:32:12;34.63;;;22.73;;
8663;SDS011;4369;47.842;13.096;2024-03-02T06:34:38;33.73;;;22.47;;
8663;SDS011;4369;47.842;13.096;2024-03-02T06:37:04;30.80;;;20.17;;
8663;SDS011;4369;47.842;13.096;2024-03-02T06:39:33;29.93;;;20.17;;
8663;SDS011;4369;47.842;13.096;2024-03-02T06:42:01;56.17;;;33.50;;
8663;SDS011;4369;47.842;13.096;2024-03-02T06:44:28;82.67;;;48.77;;
8663;SDS011;4369;47.842;13.096;2024-03-02T06:46:55;78.43;;;44.93;;
8663;SDS011;4369;47.842;13.096;2024-03-02T06:49:22;73.03;;;45.70;;
8663;SDS011;4369;47.842;13.096;2024-03-02T06:51:49;67.37;;;38.93;;
8663;SDS011;4369;47.842;13.096;2024-03-02T06:54:16;56.30;;;33.43;;
8663;SDS011;4369;47.842;13.096;2024-03-02T06:56:44;45.83;;;27.50;;
8663;SDS011;4369;47.842;13.096;2024-03-02T06:59:11;36.38;;;23.40;;
8663;SDS011;4369;47.842;13.096;2024-03-02T07:01:38;36.67;;;22.93;;
8663;SDS011;4369;47.842;13.096;2024-03-02T07:04:06;36.47;;;22.30;;
8663;SDS011;4369;47.842;13.096;2024-03-02T07:06:32;35.80;;;23.20;;
8663;SDS011;4369;47.842;13.096;2024-03-02T07:08:59;35.87;;;22.90;;
8663;SDS011;4369;47.842;13.096;2024-03-02T07:11:26;36.60;;;22.80;;
8663;SDS011;4369;47.842;13.096;2024-03-02T07:13:55;36.60;;;21.90;;
8663;SDS011;4369;47.842;13.096;2024-03-02T07:16:22;35.43;;;21.07;;
8663;SDS011;4369;47.842;13.096;2024-03-02T07:18:53;36.47;;;22.93;;
8663;SDS011;4369;47.842;13.096;2024-03-02T07:21:21;35.50;;;20.50;;
8663;SDS011;4369;47.842;13.096;2024-03-02T07:23:49;31.90;;;19.97;;
8663;SDS011;4369;47.842;13.096;2024-03-02T07:26:16;37.53;;;21.40;;
8663;SDS011;4369;47.842;13.096;2024-03-02T07:28:45;36.20;;;21.97;;
8663;SDS011;4369;47.842;13.096;2024-03-02T07:31:14;37.37;;;21.77;;
8663;SDS011;4369;47.842;13.096;2024-03-02T07:33:43;33.93;;;20.70;;
8663;SDS011;4369;47.842;13.096;2024-03-02T07:36:11;35.27;;;20.70;;
8663;SDS011;4369;47.842;13.096;2024-03-02T07:38:39;33.23;;;21.13;;
8663;SDS011;4369;47.842;13.096;2024-03-02T07:41:07;36.07;;;21.20;;
8663;SDS011;4369;47.842;13.096;2024-03-02T07:43:34;34.10;;;20.23;;
8663;SDS011;4369;47.842;13.096;2024-03-02T07:46:01;32.67;;;20.77;;
8663;SDS011;4369;47.842;13.096;2024-03-02T07:48:30;32.27;;;20.00;;
8663;SDS011;4369;47.842;13.096;2024-03-02T07:50:57;29.00;;;19.37;;
8663;SDS011;4369;47.842;13.096;2024-03-02T07:53:24;30.43;;;19.30;;
8663;SDS011;4369;47.842;13.096;2024-03-02T07:55:51;32.53;;;19.47;;
8663;SDS011;4369;47.842;13.096;2024-03-02T07:58:18;31.47;;;19.37;;
8663;SDS011;4369;47.842;13.096;2024-03-02T08:00:45;28.63;;;19.37;;
8663;SDS011;4369;47.842;13.096;2024-03-02T08:03:13;28.73;;;19.90;;
8663;SDS011;4369;47.842;13.096;2024-03-02T08:05:41;30.73;;;20.30;;
8663;SDS011;4369;47.842;13.096;2024-03-02T08:08:08;35.43;;;23.33;;
8663;SDS011;4369;47.842;13.096;2024-03-02T08:10:36;29.97;;;20.50;;
8663;SDS011;4369;47.842;13.096;2024-03-02T08:13:04;30.23;;;19.30;;
8663;SDS011;4369;47.842;13.096;2024-03-02T08:15:30;31.23;;;20.57;;
8663;SDS011;4369;47.842;13.096;2024-03-02T08:17:58;28.57;;;18.63;;
8663;SDS011;4369;47.842;13.096;2024-03-02T08:20:25;29.67;;;19.57;;
8663;SDS011;4369;47.842;13.096;2024-03-02T08:22:53;29.03;;;19.70;;
8663;SDS011;4369;47.842;13.096;2024-03-02T08:25:21;28.80;;;18.40;;
8663;SDS011;4369;47.842;13.096;2024-03-02T08:27:48;30.53;;;18.90;;
8663;SDS011;4369;47.842;13.096;2024-03-02T08:30:15;31.33;;;19.50;;
8663;SDS011;4369;47.842;13.096;2024-03-02T08:32:43;29.87;;;19.57;;
8663;SDS011;4369;47.842;13.096;2024-03-02T08:35:10;27.70;;;19.13;;
8663;SDS011;4369;47.842;13.096;2024-03-02T08:37:37;28.97;;;19.03;;
8663;SDS011;4369;47.842;13.096;2024-03-02T08:40:08;31.47;;;20.17;;
8663;SDS011;4369;47.842;13.096;2024-03-02T08:42:35;32.83;;;20.10;;
8663;SDS011;4369;47.842;13.096;2024-03-02T08:45:03;26.90;;;18.43;;
8663;SDS011;4369;47.842;13.096;2024-03-02T08:47:31;27.77;;;19.13;;
8663;SDS011;4369;47.842;13.096;2024-03-02T08:49:58;29.43;;;19.10;;
8663;SDS011;4369;47.842;13.096;2024-03-02T08:52:25;28.30;;;18.43;;
8663;SDS011;4369;47.842;13.096;2024-03-02T08:54:52;26.63;;;18.40;;
8663;SDS011;4369;47.842;13.096;2024-03-02T08:57:20;29.70;;;19.03;;
8663;SDS011;4369;47.842;13.096;2024-03-02T08:59:47;27.03;;;18.10;;
8663;SDS011;4369;47.842;13.096;2024-03-02T09:02:15;26.17;;;17.53;;
8663;SDS011;4369;47.842;13.096;2024-03-02T09:04:42;25.60;;;17.97;;
8663;SDS011;4369;47.842;13.096;2024-03-02T09:07:09;27.27;;;17.97;;
8663;SDS011;4369;47.842;13.096;2024-03-02T09:09:36;25.63;;;17.57;;
8663;SDS011;4369;47.842;13.096;2024-03-02T09:12:04;23.73;;;16.10;;
8663;SDS011;4369;47.842;13.096;2024-03-02T09:14:33;24.47;;;16.33;;
8663;SDS011;4369;47.842;13.096;2024-03-02T09:17:02;23.63;;;16.03;;
8663;SDS011;4369;47.842;13.096;2024-03-02T09:19:30;23.63;;;15.83;;
8663;SDS011;4369;47.842;13.096;2024-03-02T09:21:57;24.47;;;16.07;;
8663;SDS011;4369;47.842;13.096;2024-03-02T09:24:24;22.10;;;15.13;;
8663;SDS011;4369;47.842;13.096;2024-03-02T09:26:50;21.27;;;13.20;;
8663;SDS011;4369;47.842;13.096;2024-03-02T09:29:17;20.23;;;13.77;;
8663;SDS011;4369;47.842;13.096;2024-03-02T09:31:47;21.33;;;14.23;;
8663;SDS011;4369;47.842;13.096;2024-03-02T09:34:16;22.50;;;14.50;;
8663;SDS011;4369;47.842;13.096;2024-03-02T09:36:43;21.60;;;14.70;;
8663;SDS011;4369;47.842;13.096;2024-03-02T09:39:10;22.17;;;14.53;;
8663;SDS011;4369;47.842;13.096;2024-03-02T09:41:37;21.77;;;14.13;;
8663;SDS011;4369;47.842;13.096;2024-03-02T09:44:05;22.00;;;14.80;;
8663;SDS011;4369;47.842;13.096;2024-03-02T09:46:32;21.33;;;14.10;;
8663;SDS011;4369;47.842;13.096;2024-03-02T09:49:03;20.63;;;14.63;;
8663;SDS011;4369;47.842;13.096;2024-03-02T09:51:30;20.77;;;15.00;;
8663;SDS011;4369;47.842;13.096;2024-03-02T09:53:57;19.37;;;14.20;;
8663;SDS011;4369;47.842;13.096;2024-03-02T09:56:28;20.30;;;13.37;;
8663;SDS011;4369;47.842;13.096;2024-03-02T09:58:55;20.03;;;14.23;;
8663;SDS011;4369;47.842;13.096;2024-03-02T10:01:22;20.23;;;13.63;;
8663;SDS011;4369;47.842;13.096;2024-03-02T10:03:49;17.53;;;13.07;;
8663;SDS011;4369;47.842;13.096;2024-03-02T10:06:22;20.00;;;13.73;;
8663;SDS011;4369;47.842;13.096;2024-03-02T10:08:50;16.60;;;12.97;;
8663;SDS011;4369;47.842;13.096;2024-03-02T10:11:27;18.63;;;12.43;;
8663;SDS011;4369;47.842;13.096;2024-03-02T10:14:05;18.37;;;12.20;;
8663;SDS011;4369;47.842;13.096;2024-03-02T10:16:34;18.90;;;12.83;;
8663;SDS011;4369;47.842;13.096;2024-03-02T10:19:17;17.70;;;12.60;;
8663;SDS011;4369;47.842;13.096;2024-03-02T10:21:46;16.10;;;12.57;;
8663;SDS011;4369;47.842;13.096;2024-03-02T10:24:14;17.23;;;13.70;;
8663;SDS011;4369;47.842;13.096;2024-03-02T10:26:41;17.03;;;12.50;;
8663;SDS011;4369;47.842;13.096;2024-03-02T10:29:08;18.10;;;12.87;;
8663;SDS011;4369;47.842;13.096;2024-03-02T10:31:36;20.00;;;12.43;;
8663;SDS011;4369;47.842;13.096;2024-03-02T10:34:04;18.50;;;12.17;;
8663;SDS011;4369;47.842;13.096;2024-03-02T10:36:32;20.23;;;12.73;;
8663;SDS011;4369;47.842;13.096;2024-03-02T10:39:02;19.53;;;13.23;;
8663;SDS011;4369;47.842;13.096;2024-03-02T10:41:31;16.97;;;12.67;;
8663;SDS011;4369;47.842;13.096;2024-03-02T10:44:00;15.37;;;12.00;;
8663;SDS011;4369;47.842;13.096;2024-03-02T10:46:29;16.83;;;12.37;;
8663;SDS011;4369;47.842;13.096;2024-03-02T10:48:57;19.17;;;12.10;;
8663;SDS011;4369;47.842;13.096;2024-03-02T10:51:25;16.37;;;12.10;;
8663;SDS011;4369;47.842;13.096;2024-03-02T10:53:57;17.33;;;12.30;;
8663;SDS011;4369;47.842;13.096;2024-03-02T10:56:28;16.27;;;11.47;;
8663;SDS011;4369;47.842;13.096;2024-03-02T10:58:59;16.40;;;11.47;;
8663;SDS011;4369;47.842;13.096;2024-03-02T11:01:29;15.77;;;11.23;;
8663;SDS011;4369;47.842;13.096;2024-03-02T11:03:58;12.93;;;10.23;;
8663;SDS011;4369;47.842;13.096;2024-03-02T11:06:27;13.37;;;10.03;;
8663;SDS011;4369;47.842;13.096;2024-03-02T11:08:58;14.07;;;10.03;;
8663;SDS011;4369;47.842;13.096;2024-03-02T11:11:32;12.93;;;9.13;;
8663;SDS011;4369;47.842;13.096;2024-03-02T11:14:02;11.40;;;9.27;;
8663;SDS011;4369;47.842;13.096;2024-03-02T11:16:34;11.47;;;9.30;;
8663;SDS011;4369;47.842;13.096;2024-03-02T11:19:04;11.03;;;8.37;;
8663;SDS011;4369;47.842;13.096;2024-03-02T11:21:33;11.60;;;8.20;;
8663;SDS011;4369;47.842;13.096;2024-03-02T11:24:02;10.40;;;7.47;;
8663;SDS011;4369;47.842;13.096;2024-03-02T11:27:00;10.23;;;6.70;;
8663;SDS011;4369;47.842;13.096;2024-03-02T11:29:43;9.10;;;6.97;;
8663;SDS011;4369;47.842;13.096;2024-03-02T11:32:15;9.67;;;6.87;;
8663;SDS011;4369;47.842;13.096;2024-03-02T11:34:43;6.83;;;5.77;;
8663;SDS011;4369;47.842;13.096;2024-03-02T11:37:13;6.07;;;5.37;;
8663;SDS011;4369;47.842;13.096;2024-03-02T11:39:40;7.27;;;5.57;;
8663;SDS011;4369;47.842;13.096;2024-03-02T11:42:10;12.63;;;8.80;;
8663;SDS011;4369;47.842;13.096;2024-03-02T11:44:41;10.80;;;8.40;;
8663;SDS011;4369;47.842;13.096;2024-03-02T11:47:10;9.80;;;8.30;;
8663;SDS011;4369;47.842;13.096;2024-03-02T11:49:40;10.18;;;8.73;;
8663;SDS011;4369;47.842;13.096;2024-03-02T11:52:10;13.35;;;10.30;;
8663;SDS011;4369;47.842;13.096;2024-03-02T11:54:39;12.32;;;11.00;;
8663;SDS011;4369;47.842;13.096;2024-03-02T11:57:13;11.32;;;9.77;;
8663;SDS011;4369;47.842;13.096;2024-03-02T11:59:41;11.35;;;9.10;;
8663;SDS011;4369;47.842;13.096;2024-03-02T12:02:12;11.10;;;9.02;;
8663;SDS011;4369;47.842;13.096;2024-03-02T12:04:42;10.82;;;9.70;;
8663;SDS011;4369;47.842;13.096;2024-03-02T12:07:10;10.65;;;9.55;;
8663;SDS011;4369;47.842;13.096;2024-03-02T12:09:37;11.70;;;10.50;;
8663;SDS011;4369;47.842;13.096;2024-03-02T12:12:05;10.75;;;9.70;;
8663;SDS011;4369;47.842;13.096;2024-03-02T12:14:34;11.95;;;9.75;;
8663;SDS011;4369;47.842;13.096;2024-03-02T12:17:02;11.63;;;10.45;;
8663;SDS011;4369;47.842;13.096;2024-03-02T12:19:30;10.90;;;10.00;;
8663;SDS011;4369;47.842;13.096;2024-03-02T12:21:59;11.50;;;10.40;;
8663;SDS011;4369;47.842;13.096;2024-03-02T12:24:27;11.05;;;10.15;;
8663;SDS011;4369;47.842;13.096;2024-03-02T12:26:54;10.98;;;9.98;;
8663;SDS011;4369;47.842;13.096;2024-03-02T12:29:22;10.35;;;9.43;;
8663;SDS011;4369;47.842;13.096;2024-03-02T12:31:51;11.50;;;10.48;;
8663;SDS011;4369;47.842;13.096;2024-03-02T12:34:19;10.85;;;9.75;;
8663;SDS011;4369;47.842;13.096;2024-03-02T12:36:48;10.18;;;9.27;;
8663;SDS011;4369;47.842;13.096;2024-03-02T12:39:18;11.25;;;10.02;;
8663;SDS011;4369;47.842;13.096;2024-03-02T12:41:45;10.68;;;9.73;;
8663;SDS011;4369;47.842;13.096;2024-03-02T12:44:15;10.30;;;9.45;;
8663;SDS011;4369;47.842;13.096;2024-03-02T12:46:42;11.63;;;10.70;;
8663;SDS011;4369;47.842;13.096;2024-03-02T12:49:11;11.57;;;10.55;;
8663;SDS011;4369;47.842;13.096;2024-03-02T12:51:41;11.45;;;10.35;;
8663;SDS011;4369;47.842;13.096;2024-03-02T12:54:09;11.55;;;10.45;;
8663;SDS011;4369;47.842;13.096;2024-03-02T12:56:37;11.93;;;10.93;;
8663;SDS011;4369;47.842;13.096;2024-03-02T12:59:04;11.57;;;10.57;;
8663;SDS011;4369;47.842;13.096;2024-03-02T13:01:31;11.88;;;10.70;;
8663;SDS011;4369;47.842;13.096;2024-03-02T13:03:58;12.13;;;11.02;;
8663;SDS011;4369;47.842;13.096;2024-03-02T13:06:27;12.73;;;11.63;;
8663;SDS011;4369;47.842;13.096;2024-03-02T13:08:54;12.23;;;11.13;;
8663;SDS011;4369;47.842;13.096;2024-03-02T13:11:22;12.32;;;11.27;;
8663;SDS011;4369;47.842;13.096;2024-03-02T13:13:50;12.48;;;11.40;;
8663;SDS011;4369;47.842;13.096;2024-03-02T13:16:18;12.23;;;11.05;;
8663;SDS011;4369;47.842;13.096;2024-03-02T13:18:45;12.90;;;11.63;;
8663;SDS011;4369;47.842;13.096;2024-03-02T13:21:12;13.30;;;12.15;;
8663;SDS011;4369;47.842;13.096;2024-03-02T13:23:41;12.82;;;11.57;;
8663;SDS011;4369;47.842;13.096;2024-03-02T13:26:08;11.32;;;10.25;;
8663;SDS011;4369;47.842;13.096;2024-03-02T13:28:38;11.57;;;10.57;;
8663;SDS011;4369;47.842;13.096;2024-03-02T13:31:05;11.45;;;10.45;;
8663;SDS011;4369;47.842;13.096;2024-03-02T13:33:32;11.55;;;10.45;;
8663;SDS011;4369;47.842;13.096;2024-03-02T13:35:59;10.77;;;9.88;;
8663;SDS011;4369;47.842;13.096;2024-03-02T13:38:26;10.90;;;9.90;;
8663;SDS011;4369;47.842;13.096;2024-03-02T13:40:55;11.10;;;10.13;;
8663;SDS011;4369;47.842;13.096;2024-03-02T13:43:22;11.15;;;10.15;;
8663;SDS011;4369;47.842;13.096;2024-03-02T13:45:49;10.48;;;9.50;;
8663;SDS011;4369;47.842;13.096;2024-03-02T13:48:18;11.02;;;10.13;;
8663;SDS011;4369;47.842;13.096;2024-03-02T13:50:45;10.90;;;9.90;;
8663;SDS011;4369;47.842;13.096;2024-03-02T13:53:12;12.40;;;11.30;;
8663;SDS011;4369;47.842;13.096;2024-03-02T13:55:39;14.38;;;13.07;;
8663;SDS011;4369;47.842;13.096;2024-03-02T13:58:08;13.90;;;12.60;;
8663;SDS011;4369;47.842;13.096;2024-03-02T14:00:36;13.23;;;11.90;;
8663;SDS011;4369;47.842;13.096;2024-03-02T14:03:03;17.58;;;15.88;;
8663;SDS011;4369;47.842;13.096;2024-03-02T14:05:32;18.27;;;16.48;;
8663;SDS011;4369;47.842;13.096;2024-03-02T14:07:59;18.73;;;16.92;;
8663;SDS011;4369;47.842;13.096;2024-03-02T14:10:26;19.02;;;17.23;;
8663;SDS011;4369;47.842;13.096;2024-03-02T14:12:54;18.52;;;16.73;;
8663;SDS011;4369;47.842;13.096;2024-03-02T14:15:23;19.75;;;17.67;;
8663;SDS011;4369;47.842;13.096;2024-03-02T14:17:50;19.42;;;17.52;;
8663;SDS011;4369;47.842;13.096;2024-03-02T14:20:17;19.70;;;17.70;;
8663;SDS011;4369;47.842;13.096;2024-03-02T14:22:47;20.33;;;18.13;;
8663;SDS011;4369;47.842;13.096;2024-03-02T14:25:15;19.88;;;17.90;;
8663;SDS011;4369;47.842;13.096;2024-03-02T14:27:42;17.63;;;15.80;;
8663;SDS011;4369;47.842;13.096;2024-03-02T14:30:10;18.27;;;16.45;;
8663;SDS011;4369;47.842;13.096;2024-03-02T14:32:39;17.35;;;15.55;;
8663;SDS011;4369;47.842;13.096;2024-03-02T14:35:07;16.55;;;14.73;;
8663;SDS011;4369;47.842;13.096;2024-03-02T14:37:36;17.05;;;15.25;;
8663;SDS011;4369;47.842;13.096;2024-03-02T14:40:04;15.80;;;14.10;;
8663;SDS011;4369;47.842;13.096;2024-03-02T14:42:34;16.38;;;14.65;;